createdAt,value
2023-03-06T00:02:22.491Z,71.41
2023-03-06T00:04:52.637Z,71.43
2023-03-06T00:07:21.574Z,71.41
2023-03-06T00:09:50.486Z,71.40
2023-03-06T00:12:19.360Z,71.39
2023-03-06T00:14:48.424Z,71.51
2023-03-06T00:17:17.249Z,71.44
2023-03-06T00:19:46.081Z,71.55
2023-03-06T00:22:15.331Z,71.45
2023-03-06T00:24:44.222Z,71.50
2023-03-06T00:27:12.897Z,71.55
2023-03-06T00:29:41.802Z,71.50
2023-03-06T00:32:10.550Z,71.52
2023-03-06T00:34:39.370Z,71.56
2023-03-06T00:37:08.194Z,71.48
2023-03-06T00:39:37.056Z,71.37
2023-03-06T00:42:08.478Z,71.54
2023-03-06T00:44:41.591Z,71.50
2023-03-06T00:47:10.657Z,71.64
2023-03-06T00:49:40.459Z,71.68
2023-03-06T00:52:10.821Z,71.59
2023-03-06T00:54:40.535Z,71.55
2023-03-06T00:57:09.484Z,71.63
2023-03-06T00:59:38.484Z,71.74
2023-03-06T01:02:08.768Z,71.73
2023-03-06T01:04:37.458Z,71.63
2023-03-06T01:07:06.402Z,71.80
2023-03-06T01:09:35.094Z,71.72
2023-03-06T01:12:04.292Z,71.66
2023-03-06T01:14:33.019Z,71.61
2023-03-06T01:17:02.057Z,71.62
2023-03-06T01:19:30.937Z,71.54
2023-03-06T01:21:59.624Z,71.46
2023-03-06T01:24:28.462Z,71.50
2023-03-06T01:27:01.712Z,71.59
2023-03-06T01:29:30.673Z,71.60
2023-03-06T01:31:59.415Z,71.62
2023-03-06T01:34:28.824Z,71.63
2023-03-06T01:36:58.261Z,71.67
2023-03-06T01:39:28.222Z,71.53
2023-03-06T01:41:57.520Z,71.57
2023-03-06T01:44:26.369Z,71.69
2023-03-06T01:46:55.852Z,71.74
2023-03-06T01:49:30.587Z,71.78
2023-03-06T01:52:08.395Z,71.91
2023-03-06T01:54:44.687Z,71.76
2023-03-06T01:57:26.430Z,71.78
2023-03-06T02:00:02.526Z,71.86
2023-03-06T02:02:44.845Z,71.68
2023-03-06T02:05:18.578Z,71.64
2023-03-06T02:07:56.691Z,71.69
2023-03-06T02:10:25.824Z,71.75
2023-03-06T02:12:54.706Z,71.73
2023-03-06T02:15:28.057Z,71.69
2023-03-06T02:17:59.878Z,71.86
2023-03-06T02:20:39.059Z,71.76
2023-03-06T02:23:14.706Z,71.85
2023-03-06T02:25:48.329Z,71.86
2023-03-06T02:28:20.252Z,71.91
2023-03-06T02:30:51.571Z,72.03
2023-03-06T02:33:23.506Z,72.05
2023-03-06T02:35:55.224Z,71.95
2023-03-06T02:38:28.129Z,71.92
2023-03-06T02:40:58.895Z,71.95
2023-03-06T02:43:34.084Z,71.82
2023-03-06T02:46:06.028Z,71.77
2023-03-06T02:48:36.082Z,71.83
2023-03-06T02:51:05.199Z,71.70
2023-03-06T02:53:34.321Z,71.78
2023-03-06T02:56:03.099Z,71.80
2023-03-06T02:58:31.927Z,71.82
2023-03-06T03:01:02.144Z,71.75
2023-03-06T03:03:32.674Z,71.87
2023-03-06T03:06:08.227Z,71.95
2023-03-06T03:08:38.904Z,72.09
2023-03-06T03:11:08.624Z,72.11
2023-03-06T03:13:45.757Z,71.91
2023-03-06T03:16:21.730Z,72.00
2023-03-06T03:18:52.236Z,72.04
2023-03-06T03:21:23.887Z,72.09
2023-03-06T03:23:59.252Z,71.93
2023-03-06T03:26:30.591Z,72.11
2023-03-06T03:29:06.658Z,71.98
2023-03-06T03:31:36.352Z,71.97
2023-03-06T03:34:05.442Z,71.94
2023-03-06T03:36:37.679Z,71.88
2023-03-06T03:39:08.224Z,71.82
2023-03-06T03:41:37.313Z,71.84
2023-03-06T03:44:08.494Z,71.86
2023-03-06T03:46:42.776Z,71.86
2023-03-06T03:49:17.352Z,71.86
2023-03-06T03:51:47.360Z,71.87
2023-03-06T03:54:31.791Z,71.83
2023-03-06T03:57:02.230Z,72.01
2023-03-06T03:59:34.480Z,72.07
2023-03-06T04:02:11.975Z,72.21
2023-03-06T04:04:48.902Z,72.09
2023-03-06T04:07:21.317Z,72.13
2023-03-06T04:09:51.442Z,72.18
2023-03-06T04:12:20.482Z,72.11
2023-03-06T04:14:49.718Z,72.10
2023-03-06T04:17:19.897Z,72.08
2023-03-06T04:19:53.351Z,71.92
2023-03-06T04:22:21.985Z,71.91
2023-03-06T04:24:55.587Z,71.90
2023-03-06T04:27:25.577Z,71.67
2023-03-06T04:29:56.271Z,71.80
2023-03-06T04:32:26.302Z,71.63
2023-03-06T04:34:58.754Z,71.79
2023-03-06T04:37:28.260Z,71.97
2023-03-06T04:39:58.726Z,71.96
2023-03-06T04:42:27.504Z,71.86
2023-03-06T04:44:58.698Z,71.96
2023-03-06T04:47:42.213Z,71.93
2023-03-06T04:50:18.604Z,71.86
2023-03-06T04:52:56.358Z,71.84
2023-03-06T04:55:28.522Z,72.03
2023-03-06T04:58:02.606Z,71.92
2023-03-06T05:00:31.889Z,71.98
2023-03-06T05:03:01.674Z,71.77
2023-03-06T05:05:36.975Z,71.51
2023-03-06T05:08:08.553Z,71.54
2023-03-06T05:10:37.756Z,71.61
2023-03-06T05:13:16.307Z,71.44
2023-03-06T05:15:45.290Z,71.62
2023-03-06T05:18:14.434Z,71.57
2023-03-06T05:20:43.532Z,71.68
2023-03-06T05:23:12.817Z,71.68
2023-03-06T05:25:42.454Z,71.67
2023-03-06T05:28:13.750Z,71.70
2023-03-06T05:30:42.756Z,71.77
2023-03-06T05:33:11.386Z,71.72
2023-03-06T05:35:48.468Z,71.81
2023-03-06T05:38:17.606Z,71.62
2023-03-06T05:40:46.476Z,71.74
2023-03-06T05:43:21.405Z,71.88
2023-03-06T05:45:52.321Z,72.11
2023-03-06T05:48:23.853Z,72.09
2023-03-06T05:50:57.598Z,72.05
2023-03-06T05:53:27.368Z,72.00
2023-03-06T05:56:00.773Z,72.04
2023-03-06T05:58:30.687Z,72.06
2023-03-06T06:01:00.636Z,71.91
2023-03-06T06:03:29.433Z,71.95
2023-03-06T06:05:59.112Z,71.85
2023-03-06T06:08:28.136Z,71.85
2023-03-06T06:10:58.365Z,71.87
2023-03-06T06:13:27.958Z,71.78
2023-03-06T06:15:58.199Z,72.10
2023-03-06T06:18:27.307Z,71.98
2023-03-06T06:20:57.125Z,72.03
2023-03-06T06:23:25.965Z,72.11
2023-03-06T06:25:58.704Z,72.09
2023-03-06T06:28:28.664Z,72.15
2023-03-06T06:30:59.811Z,72.09
2023-03-06T06:33:28.616Z,72.14
2023-03-06T06:35:59.238Z,72.25
2023-03-06T06:38:27.941Z,72.33
2023-03-06T06:41:30.773Z,72.25
2023-03-06T06:43:46.057Z,72.31
2023-03-06T06:46:47.180Z,72.33
2023-03-06T06:49:05.122Z,72.39
2023-03-06T06:51:34.292Z,72.46
2023-03-06T06:54:03.129Z,72.51
2023-03-06T06:56:32.026Z,72.66
2023-03-06T06:59:15.317Z,72.79
2023-03-06T07:01:52.295Z,72.76
2023-03-06T07:04:21.557Z,73.03
2023-03-06T07:06:50.501Z,73.10
2023-03-06T07:09:19.494Z,73.12
2023-03-06T07:11:49.169Z,73.10
2023-03-06T07:14:18.174Z,73.29
2023-03-06T07:16:49.532Z,73.52
2023-03-06T07:19:18.211Z,73.66
2023-03-06T07:21:46.968Z,73.79
2023-03-06T07:24:16.278Z,74.00
2023-03-06T07:26:48.343Z,73.88
2023-03-06T07:29:17.198Z,73.53
2023-03-06T07:31:48.071Z,73.11
2023-03-06T07:34:16.793Z,72.79
2023-03-06T07:36:46.091Z,73.38
2023-03-06T07:39:14.868Z,74.75
2023-03-06T07:41:44.051Z,75.32
2023-03-06T07:44:12.828Z,75.62
2023-03-06T07:46:58.439Z,75.63
2023-03-06T07:49:27.114Z,75.29
2023-03-06T07:51:57.866Z,75.05
2023-03-06T07:54:26.605Z,74.75
2023-03-06T07:56:58.258Z,73.87
2023-03-06T07:59:27.000Z,73.84
2023-03-06T08:01:58.454Z,74.12
2023-03-06T08:04:29.026Z,74.19
2023-03-06T08:07:00.398Z,74.16
2023-03-06T08:09:29.568Z,73.48
2023-03-06T08:12:00.402Z,72.91
2023-03-06T08:14:29.250Z,71.46
2023-03-06T08:16:58.869Z,71.03
2023-03-06T08:19:27.550Z,71.14
2023-03-06T08:21:56.962Z,71.01
2023-03-06T08:24:25.606Z,71.03
2023-03-06T08:26:54.204Z,71.37
2023-03-06T08:29:23.660Z,71.11
2023-03-06T08:31:53.070Z,71.38
2023-03-06T08:34:24.015Z,71.47
2023-03-06T08:36:53.584Z,71.31
2023-03-06T08:39:59.550Z,71.49
2023-03-06T08:42:28.736Z,71.57
2023-03-06T08:44:57.898Z,71.71
2023-03-06T08:47:26.729Z,71.61
2023-03-06T08:49:56.349Z,71.21
2023-03-06T08:52:25.016Z,71.24
2023-03-06T08:55:02.819Z,71.39
2023-03-06T08:57:31.808Z,71.46
2023-03-06T09:00:08.121Z,71.64
2023-03-06T09:02:37.028Z,71.62
2023-03-06T09:05:07.328Z,71.57
2023-03-06T09:07:38.885Z,71.61
2023-03-06T09:10:16.501Z,71.33
2023-03-06T09:12:55.104Z,71.51
2023-03-06T09:15:25.517Z,71.55
2023-03-06T09:17:54.350Z,71.37
2023-03-06T09:20:23.844Z,71.35
2023-03-06T09:22:56.531Z,71.27
2023-03-06T09:25:25.398Z,71.34
2023-03-06T09:28:10.103Z,71.28
2023-03-06T09:30:41.300Z,71.13
2023-03-06T09:33:13.067Z,71.35
2023-03-06T09:35:45.171Z,71.33
2023-03-06T09:38:14.007Z,71.37
2023-03-06T09:41:06.159Z,71.32
2023-03-06T09:43:38.034Z,71.30
2023-03-06T09:46:20.122Z,71.20
2023-03-06T09:49:00.510Z,71.36
2023-03-06T09:51:41.041Z,71.30
2023-03-06T09:54:13.646Z,71.49
2023-03-06T09:56:47.315Z,71.53
2023-03-06T09:59:20.059Z,71.71
2023-03-06T10:02:00.192Z,71.68
2023-03-06T10:04:37.988Z,71.54
2023-03-06T10:07:14.927Z,71.52
2023-03-06T10:09:53.927Z,71.31
2023-03-06T10:12:31.467Z,71.39
2023-03-06T10:15:16.791Z,71.20
2023-03-06T10:17:48.120Z,71.13
2023-03-06T10:20:23.394Z,71.04
2023-03-06T10:23:35.427Z,71.07
2023-03-06T10:26:12.861Z,71.10
2023-03-06T10:28:46.442Z,71.18
2023-03-06T10:31:22.406Z,71.33
2023-03-06T10:33:56.215Z,71.33
2023-03-06T10:36:27.449Z,71.31
2023-03-06T10:38:59.875Z,71.21
2023-03-06T10:41:30.783Z,71.18
2023-03-06T10:44:22.944Z,71.31
2023-03-06T10:46:56.334Z,71.26
2023-03-06T10:49:31.003Z,71.24
2023-03-06T10:52:03.700Z,71.10
2023-03-06T10:54:35.552Z,71.05
2023-03-06T10:57:24.540Z,70.99
2023-03-06T10:59:57.597Z,70.88
2023-03-06T11:02:30.436Z,70.97
2023-03-06T11:05:01.292Z,71.17
2023-03-06T11:07:31.279Z,71.20
2023-03-06T11:10:16.726Z,71.17
2023-03-06T11:12:59.059Z,71.08
2023-03-06T11:15:34.848Z,71.05
2023-03-06T11:18:25.609Z,70.89
2023-03-06T11:20:58.264Z,70.78
2023-03-06T11:23:37.119Z,70.97
2023-03-06T11:26:22.803Z,70.89
2023-03-06T11:29:01.820Z,71.05
2023-03-06T11:31:34.779Z,71.21
2023-03-06T11:34:13.299Z,71.21
2023-03-06T11:36:47.796Z,71.05
2023-03-06T11:39:24.402Z,71.14
2023-03-06T11:42:03.221Z,71.13
2023-03-06T11:44:43.733Z,71.08
2023-03-06T11:47:20.766Z,71.16
2023-03-06T11:50:05.134Z,71.05
2023-03-06T11:52:46.283Z,71.09
2023-03-06T11:55:20.688Z,71.13
2023-03-06T11:57:59.563Z,71.03
2023-03-06T12:00:42.101Z,71.20
2023-03-06T12:03:33.599Z,71.19
2023-03-06T12:06:08.836Z,71.05
2023-03-06T12:08:47.082Z,71.06
2023-03-06T12:11:23.024Z,70.97
2023-03-06T12:14:28.727Z,70.99
2023-03-06T12:17:10.807Z,71.11
2023-03-06T12:20:06.666Z,71.18
2023-03-06T12:22:58.014Z,71.09
2023-03-06T12:25:36.917Z,71.10
2023-03-06T12:28:26.164Z,71.17
2023-03-06T12:31:12.187Z,71.15
2023-03-06T12:33:49.434Z,71.12
2023-03-06T12:36:32.260Z,71.18
2023-03-06T12:39:12.225Z,71.07
2023-03-06T12:42:23.013Z,71.20
2023-03-06T12:45:16.706Z,71.24
2023-03-06T12:47:47.916Z,71.36
2023-03-06T12:50:22.241Z,71.29
2023-03-06T12:52:57.420Z,71.38
2023-03-06T12:55:26.576Z,71.46
2023-03-06T12:57:56.280Z,71.32
2023-03-06T13:01:04.243Z,71.37
2023-03-06T13:03:53.016Z,71.29
2023-03-06T13:06:39.166Z,71.41
2023-03-06T13:09:20.033Z,71.37
2023-03-06T13:12:17.609Z,71.42
2023-03-06T13:15:32.145Z,71.33
2023-03-06T13:18:57.039Z,71.40
2023-03-06T13:22:00.839Z,71.38
2023-03-06T13:24:32.924Z,71.51
2023-03-06T13:27:07.657Z,71.51
2023-03-06T13:30:19.933Z,71.52
2023-03-06T13:32:52.096Z,71.54
2023-03-06T13:35:52.739Z,71.52
2023-03-06T13:38:36.127Z,71.64
2023-03-06T13:41:40.461Z,71.73
2023-03-06T13:44:49.092Z,71.78
2023-03-06T13:48:02.829Z,71.75
2023-03-06T13:50:34.279Z,71.63
2023-03-06T13:53:27.018Z,71.70
2023-03-06T13:56:07.779Z,71.83
2023-03-06T13:58:53.317Z,71.98
2023-03-06T14:01:35.696Z,71.92
2023-03-06T14:04:37.457Z,72.07
2023-03-06T14:07:22.499Z,72.00
2023-03-06T14:10:13.920Z,71.95
2023-03-06T14:12:56.593Z,71.97
2023-03-06T14:15:28.813Z,72.06
2023-03-06T14:18:02.700Z,72.00
2023-03-06T14:20:42.674Z,72.03
2023-03-06T14:23:25.945Z,72.09
2023-03-06T14:26:07.769Z,72.14
2023-03-06T14:28:37.336Z,72.18
2023-03-06T14:31:06.683Z,72.27
2023-03-06T14:33:43.018Z,72.29
2023-03-06T14:36:16.907Z,72.27
2023-03-06T14:38:48.246Z,72.39
2023-03-06T14:41:25.010Z,72.33
2023-03-06T14:44:06.772Z,72.25
2023-03-06T14:46:39.708Z,72.29
2023-03-06T14:49:12.189Z,72.15
2023-03-06T14:51:44.713Z,72.16
2023-03-06T14:54:18.837Z,72.21
2023-03-06T14:56:51.215Z,72.19
2023-03-06T14:59:25.214Z,72.16
2023-03-06T15:02:00.724Z,72.18
2023-03-06T15:04:36.878Z,72.20
2023-03-06T15:07:10.540Z,72.32
2023-03-06T15:09:43.811Z,72.44
2023-03-06T15:12:34.621Z,72.41
2023-03-06T15:15:24.272Z,72.46
2023-03-06T15:17:53.874Z,72.48
2023-03-06T15:20:46.957Z,72.56
2023-03-06T15:23:22.293Z,72.67
2023-03-06T15:25:57.321Z,72.64
2023-03-06T15:28:33.831Z,72.57
2023-03-06T15:31:18.678Z,72.51
2023-03-06T15:34:04.253Z,72.53
2023-03-06T15:36:34.826Z,72.63
2023-03-06T15:39:35.371Z,72.64
2023-03-06T15:42:18.524Z,72.64
2023-03-06T15:44:52.909Z,72.64
2023-03-06T15:47:23.422Z,72.56
2023-03-06T15:49:52.606Z,72.51
2023-03-06T15:52:22.299Z,72.61
2023-03-06T15:54:54.200Z,72.64
2023-03-06T15:57:25.908Z,72.61
2023-03-06T15:59:56.768Z,72.63
2023-03-06T16:02:25.596Z,72.66
2023-03-06T16:04:54.309Z,72.63
2023-03-06T16:07:23.311Z,72.63
2023-03-06T16:09:53.988Z,72.73
2023-03-06T16:12:22.959Z,72.66
2023-03-06T16:14:51.723Z,72.72
2023-03-06T16:17:20.370Z,72.78
2023-03-06T16:19:50.016Z,72.70
2023-03-06T16:22:18.744Z,72.86
2023-03-06T16:24:47.390Z,72.75
2023-03-06T16:27:18.336Z,72.78
2023-03-06T16:29:46.917Z,72.66
2023-03-06T16:32:16.783Z,72.67
2023-03-06T16:34:45.696Z,72.77
2023-03-06T16:37:14.600Z,72.76
2023-03-06T16:39:43.444Z,72.79
2023-03-06T16:42:12.544Z,72.87
2023-03-06T16:44:41.207Z,72.83
2023-03-06T16:47:11.690Z,72.83
2023-03-06T16:49:40.362Z,72.92
2023-03-06T16:52:10.953Z,72.98
2023-03-06T16:54:39.606Z,72.96
2023-03-06T16:57:13.620Z,72.88
2023-03-06T16:59:42.721Z,72.88
2023-03-06T17:02:12.215Z,72.93
2023-03-06T17:04:40.855Z,72.90
2023-03-06T17:07:10.254Z,72.95
2023-03-06T17:09:38.892Z,73.05
2023-03-06T17:12:09.438Z,73.02
2023-03-06T17:14:38.230Z,73.11
2023-03-06T17:17:07.101Z,73.17
2023-03-06T17:19:35.806Z,73.10
2023-03-06T17:22:04.828Z,73.09
2023-03-06T17:24:34.940Z,73.11
2023-03-06T17:27:03.756Z,73.11
2023-03-06T17:29:32.509Z,73.12
2023-03-06T17:32:01.268Z,73.14
2023-03-06T17:34:30.062Z,73.11
2023-03-06T17:37:00.710Z,73.11
2023-03-06T17:39:33.896Z,73.09
2023-03-06T17:42:03.643Z,73.12
2023-03-06T17:44:33.764Z,73.15
2023-03-06T17:47:02.745Z,73.26
2023-03-06T17:49:31.841Z,73.21
2023-03-06T17:52:02.289Z,73.16
2023-03-06T17:54:32.570Z,73.04
2023-03-06T17:57:03.024Z,73.22
2023-03-06T17:59:33.945Z,73.29
2023-03-06T18:02:03.291Z,73.29
2023-03-06T18:04:32.259Z,73.38
2023-03-06T18:07:01.123Z,73.39
2023-03-06T18:09:30.215Z,73.30
2023-03-06T18:12:00.129Z,73.27
2023-03-06T18:14:29.372Z,73.30
2023-03-06T18:16:59.680Z,73.27
2023-03-06T18:19:28.993Z,73.38
2023-03-06T18:21:59.977Z,73.32
2023-03-06T18:24:29.077Z,73.37
2023-03-06T18:26:58.544Z,73.40
2023-03-06T18:29:27.689Z,73.49
2023-03-06T18:31:58.751Z,73.46
2023-03-06T18:34:27.765Z,73.45
2023-03-06T18:36:57.681Z,73.48
2023-03-06T18:39:27.344Z,73.31
2023-03-06T18:41:57.776Z,73.37
2023-03-06T18:44:28.514Z,73.36
2023-03-06T18:46:59.883Z,73.32
2023-03-06T18:49:29.265Z,73.44
2023-03-06T18:52:00.962Z,73.37
2023-03-06T18:54:30.188Z,73.35
2023-03-06T18:57:00.428Z,73.34
2023-03-06T18:59:30.253Z,73.41
2023-03-06T19:01:59.975Z,73.43
2023-03-06T19:04:29.024Z,73.45
2023-03-06T19:06:58.781Z,73.21
2023-03-06T19:09:28.013Z,73.29
2023-03-06T19:12:00.093Z,73.34
2023-03-06T19:14:29.214Z,73.41
2023-03-06T19:16:58.984Z,73.40
2023-03-06T19:19:28.858Z,73.30
2023-03-06T19:21:59.982Z,73.29
2023-03-06T19:24:28.962Z,73.30
2023-03-06T19:26:58.644Z,73.52
2023-03-06T19:29:28.014Z,73.54
2023-03-06T19:32:00.142Z,73.43
2023-03-06T19:34:29.129Z,73.57
2023-03-06T19:37:02.261Z,73.46
2023-03-06T19:39:36.103Z,73.45
2023-03-06T19:42:13.899Z,73.48
2023-03-06T19:44:45.369Z,73.42
2023-03-06T19:47:14.990Z,73.31
2023-03-06T19:49:44.702Z,73.29
2023-03-06T19:52:18.469Z,73.30
2023-03-06T19:54:47.780Z,73.36
2023-03-06T19:57:21.790Z,73.33
2023-03-06T19:59:52.752Z,73.38
2023-03-06T20:02:27.255Z,73.41
2023-03-06T20:05:00.328Z,73.37
2023-03-06T20:07:35.941Z,73.62
2023-03-06T20:10:06.838Z,73.63
2023-03-06T20:12:38.292Z,73.52
2023-03-06T20:15:20.079Z,73.39
2023-03-06T20:17:50.857Z,73.43
2023-03-06T20:20:21.166Z,73.37
2023-03-06T20:22:58.329Z,73.32
2023-03-06T20:25:28.796Z,73.22
2023-03-06T20:28:01.096Z,73.40
2023-03-06T20:30:37.805Z,73.37
2023-03-06T20:33:10.090Z,73.35
2023-03-06T20:35:49.392Z,73.39
2023-03-06T20:38:19.252Z,73.61
2023-03-06T20:40:54.097Z,73.57
2023-03-06T20:43:27.670Z,73.71
2023-03-06T20:45:59.699Z,73.76
2023-03-06T20:48:29.990Z,73.58
2023-03-06T20:51:02.942Z,73.58
2023-03-06T20:53:34.444Z,73.62
2023-03-06T20:56:03.364Z,73.46
2023-03-06T20:58:32.331Z,73.49
2023-03-06T21:01:02.468Z,73.49
2023-03-06T21:03:31.248Z,73.33
2023-03-06T21:06:00.222Z,73.53
2023-03-06T21:08:29.075Z,73.41
2023-03-06T21:10:58.769Z,73.41
2023-03-06T21:13:28.410Z,73.52
2023-03-06T21:15:58.096Z,73.47
2023-03-06T21:18:27.074Z,73.63
2023-03-06T21:20:55.694Z,73.58
2023-03-06T21:23:25.495Z,73.53
2023-03-06T21:25:54.425Z,73.60
2023-03-06T21:28:27.012Z,73.72
2023-03-06T21:30:59.300Z,73.73
2023-03-06T21:33:28.506Z,73.66
2023-03-06T21:35:57.977Z,73.63
2023-03-06T21:38:27.325Z,73.65
2023-03-06T21:40:57.170Z,73.50
2023-03-06T21:43:25.928Z,73.59
2023-03-06T21:45:58.806Z,73.57
2023-03-06T21:48:27.576Z,73.63
2023-03-06T21:51:05.393Z,73.61
2023-03-06T21:53:36.149Z,73.60
2023-03-06T21:56:06.126Z,73.56
2023-03-06T21:58:35.261Z,73.62
2023-03-06T22:01:09.469Z,73.58
2023-03-06T22:03:38.692Z,73.64
2023-03-06T22:06:12.285Z,73.70
2023-03-06T22:08:41.532Z,73.67
2023-03-06T22:11:12.884Z,73.75
2023-03-06T22:13:42.586Z,73.71
2023-03-06T22:16:11.957Z,73.67
2023-03-06T22:18:43.834Z,73.69
2023-03-06T22:21:14.981Z,73.59
2023-03-06T22:23:44.295Z,73.74
2023-03-06T22:26:15.026Z,73.70
2023-03-06T22:28:43.667Z,73.74
2023-03-06T22:31:14.410Z,73.71
2023-03-06T22:33:43.648Z,73.65
2023-03-06T22:36:15.039Z,73.56
2023-03-06T22:38:45.536Z,73.79
2023-03-06T22:41:16.249Z,73.70
2023-03-06T22:43:45.156Z,73.72
2023-03-06T22:46:15.842Z,73.58
2023-03-06T22:48:45.312Z,73.77
2023-03-06T22:51:16.678Z,73.83
2023-03-06T22:53:46.316Z,73.68
2023-03-06T22:56:17.964Z,73.72
2023-03-06T22:58:46.661Z,73.68
2023-03-06T23:01:17.016Z,73.65
2023-03-06T23:03:47.472Z,73.33
2023-03-06T23:06:17.610Z,73.42
2023-03-06T23:08:51.702Z,73.44
2023-03-06T23:11:24.327Z,73.65
2023-03-06T23:14:12.963Z,73.79
2023-03-06T23:17:00.189Z,73.86
2023-03-06T23:19:50.342Z,73.55
2023-03-06T23:22:37.721Z,73.54
2023-03-06T23:25:28.553Z,73.30
2023-03-06T23:28:01.269Z,73.39
2023-03-06T23:30:30.887Z,73.20
2023-03-06T23:33:00.891Z,73.23
2023-03-06T23:35:31.882Z,73.03
2023-03-06T23:38:01.887Z,73.21
2023-03-06T23:40:33.158Z,73.35
2023-03-06T23:43:02.282Z,73.43
2023-03-06T23:45:31.456Z,73.49
2023-03-06T23:48:00.352Z,73.48
2023-03-06T23:50:29.530Z,73.53
2023-03-06T23:53:03.007Z,73.37
2023-03-06T23:55:32.092Z,73.42
2023-03-06T23:58:01.731Z,73.44
